Time;durP1;ratioP1;P1;durP2;ratioP2;P2;SDS_P1;SDS_P2;PMS_P1;PMS_P2;Temp;Humidity;BMP_temperature;BMP_pressure;BME280_temperature;BME280_humidity;BME280_pressure;Samples;Min_cycle;Max_cycle;Signal;HPM_P1;HPM_P2
2021/03/13 00:01:29;;;;;;;42.53;7.53;;;;;;;;;;5025160;28;20068;-68
2021/03/13 00:03:55;;;;;;;38.60;8.15;;;;;;;;;;5023040;28;20045;-68
2021/03/13 00:06:22;;;;;;;43.22;8.13;;;;;;;;;;5030304;28;20446;-68
2021/03/13 00:08:48;;;;;;;35.75;7.38;;;;;;;;;;5026450;28;20167;-68
2021/03/13 00:11:14;;;;;;;38.00;7.05;;;;;;;;;;5027338;28;20041;-67
2021/03/13 00:13:41;;;;;;;34.00;7.43;;;;;;;;;;5029690;28;20041;-67
2021/03/13 00:16:07;;;;;;;36.35;6.80;;;;;;;;;;5020386;28;20054;-68
2021/03/13 00:18:35;;;;;;;33.25;7.22;;;;;;;;;;5026912;28;20025;-67
2021/03/13 00:21:02;;;;;;;55.45;7.55;;;;;;;;;;5028974;28;20046;-68
2021/03/13 00:23:29;;;;;;;33.43;6.53;;;;;;;;;;5028198;28;20497;-67
2021/03/13 00:25:55;;;;;;;29.27;6.68;;;;;;;;;;5027109;28;20300;-68
2021/03/13 00:28:21;;;;;;;34.08;6.28;;;;;;;;;;5018900;28;20042;-68
2021/03/13 00:30:48;;;;;;;47.00;7.53;;;;;;;;;;5028795;28;20061;-67
2021/03/13 00:33:19;;;;;;;39.53;6.27;;;;;;;;;;5023940;28;20049;-68
2021/03/13 00:35:47;;;;;;;38.80;6.25;;;;;;;;;;5022946;28;20189;-68
2021/03/13 00:38:13;;;;;;;33.08;7.40;;;;;;;;;;5020000;28;20448;-68
2021/03/13 00:40:41;;;;;;;49.53;6.60;;;;;;;;;;5026306;28;20037;-68
2021/03/13 00:43:09;;;;;;;43.00;7.47;;;;;;;;;;5029233;28;20576;-68
2021/03/13 00:45:35;;;;;;;35.22;6.82;;;;;;;;;;5022967;28;20485;-67
2021/03/13 00:48:02;;;;;;;35.53;6.70;;;;;;;;;;5023001;28;20480;-68
2021/03/13 00:50:31;;;;;;;35.03;6.75;;;;;;;;;;5019953;28;20164;-68
2021/03/13 00:52:58;;;;;;;42.63;6.40;;;;;;;;;;5039758;28;20073;-67
2021/03/13 00:55:24;;;;;;;30.63;5.57;;;;;;;;;;5025443;28;20521;-68
2021/03/13 00:57:56;;;;;;;33.55;6.30;;;;;;;;;;5035563;28;20045;-67
2021/03/13 01:00:45;;;;;;;51.05;6.63;;;;;;;;;;5019681;28;20054;-67
2021/03/13 01:03:16;;;;;;;35.35;5.97;;;;;;;;;;5024659;28;20136;-67
2021/03/13 01:05:44;;;;;;;;;;;;;;;;;;5023558;28;20393;-68
2021/03/13 01:08:10;;;;;;;48.35;7.25;;;;;;;;;;5026139;28;19964;-68
2021/03/13 01:11:06;;;;;;;34.83;5.78;;;;;;;;;;5029217;28;20049;-68
2021/03/13 01:13:38;;;;;;;43.20;6.88;;;;;;;;;;5030258;28;20071;-68
2021/03/13 01:16:05;;;;;;;39.03;6.25;;;;;;;;;;5030329;28;20417;-68
2021/03/13 01:18:32;;;;;;;56.25;7.82;;;;;;;;;;5026969;28;20117;-67
2021/03/13 01:21:02;;;;;;;41.28;7.47;;;;;;;;;;5022777;28;20045;-67
2021/03/13 01:23:37;;;;;;;45.45;7.10;;;;;;;;;;5043881;28;20045;-67
2021/03/13 01:26:04;;;;;;;38.05;7.45;;;;;;;;;;5027248;28;20133;-68
2021/03/13 01:28:31;;;;;;;44.28;8.30;;;;;;;;;;5026212;28;20038;-67
2021/03/13 01:31:07;;;;;;;50.75;7.93;;;;;;;;;;5030298;28;20049;-68
2021/03/13 01:33:36;;;;;;;42.15;7.00;;;;;;;;;;5031250;28;20413;-67
2021/03/13 01:36:04;;;;;;;45.15;7.50;;;;;;;;;;5031447;28;20049;-67
2021/03/13 01:38:33;;;;;;;45.55;8.65;;;;;;;;;;5024464;28;20057;-67
2021/03/13 01:41:02;;;;;;;48.85;8.32;;;;;;;;;;5030973;28;20132;-68
2021/03/13 01:43:29;;;;;;;45.72;7.93;;;;;;;;;;5045279;28;20413;-67
2021/03/13 01:45:57;;;;;;;57.47;8.77;;;;;;;;;;5035233;28;20052;-67
2021/03/13 01:48:29;;;;;;;37.30;8.50;;;;;;;;;;5027880;28;20045;-67
2021/03/13 01:50:56;;;;;;;47.30;7.38;;;;;;;;;;5030898;28;20391;-67
2021/03/13 01:53:23;;;;;;;44.07;8.63;;;;;;;;;;5029931;28;20136;-68
2021/03/13 01:55:49;;;;;;;48.70;9.27;;;;;;;;;;5029819;28;20292;-67
2021/03/13 01:58:15;;;;;;;51.03;9.05;;;;;;;;;;5022600;28;20046;-68
2021/03/13 02:00:53;;;;;;;46.78;8.60;;;;;;;;;;5028615;28;20564;-68
2021/03/13 02:03:22;;;;;;;52.03;9.77;;;;;;;;;;5029761;28;20053;-68
2021/03/13 02:05:50;;;;;;;40.15;8.35;;;;;;;;;;5030037;28;20091;-67
2021/03/13 02:08:21;;;;;;;52.58;9.38;;;;;;;;;;5030541;28;20047;-68
2021/03/13 02:11:07;;;;;;;52.72;9.07;;;;;;;;;;5029762;28;20046;-68
2021/03/13 02:14:02;;;;;;;44.60;8.30;;;;;;;;;;5051973;28;20048;-69
2021/03/13 02:16:47;;;;;;;61.95;9.65;;;;;;;;;;5021523;28;20599;-68
2021/03/13 02:19:23;;;;;;;59.03;9.57;;;;;;;;;;5022560;28;20046;-68
2021/03/13 02:22:07;;;;;;;47.92;9.18;;;;;;;;;;5025216;28;20500;-68
2021/03/13 02:24:36;;;;;;;62.97;9.68;;;;;;;;;;5044193;28;20091;-68
2021/03/13 02:27:10;;;;;;;53.35;9.07;;;;;;;;;;5029571;28;20084;-68
2021/03/13 02:29:55;;;;;;;61.08;10.05;;;;;;;;;;5027337;28;20096;-68
2021/03/13 02:32:43;;;;;;;54.20;8.88;;;;;;;;;;5022913;28;20410;-68
2021/03/13 02:35:14;;;;;;;50.45;9.23;;;;;;;;;;5038909;28;20095;-68
2021/03/13 02:37:44;;;;;;;61.78;8.38;;;;;;;;;;5023806;28;20046;-68
2021/03/13 02:40:12;;;;;;;46.17;10.20;;;;;;;;;;5020755;28;20413;-68
2021/03/13 02:42:45;;;;;;;44.25;8.30;;;;;;;;;;5026311;28;20124;-68
2021/03/13 02:45:12;;;;;;;60.67;9.65;;;;;;;;;;5026316;28;20042;-68
2021/03/13 02:47:42;;;;;;;60.00;9.88;;;;;;;;;;5039725;28;20108;-68
2021/03/13 02:50:10;;;;;;;47.30;9.25;;;;;;;;;;5034116;28;20054;-69
2021/03/13 02:52:48;;;;;;;70.22;9.82;;;;;;;;;;5040735;28;20053;-68
2021/03/13 02:55:15;;;;;;;57.55;9.25;;;;;;;;;;5026047;28;20099;-68
2021/03/13 02:57:45;;;;;;;65.90;9.32;;;;;;;;;;5026815;28;20401;-68
2021/03/13 03:00:15;;;;;;;47.25;9.73;;;;;;;;;;5041864;28;20042;-68
2021/03/13 03:02:45;;;;;;;47.35;8.98;;;;;;;;;;5024838;28;20045;-68
2021/03/13 03:05:13;;;;;;;49.33;8.65;;;;;;;;;;5029503;28;20053;-68
2021/03/13 03:07:39;;;;;;;52.40;9.18;;;;;;;;;;5023214;28;20041;-68
2021/03/13 03:10:10;;;;;;;55.92;9.10;;;;;;;;;;5044347;28;20053;-68
2021/03/13 03:12:37;;;;;;;49.13;8.60;;;;;;;;;;5027871;28;20409;-68
2021/03/13 03:15:05;;;;;;;59.72;9.10;;;;;;;;;;5025493;28;20049;-68
2021/03/13 03:17:33;;;;;;;53.92;9.85;;;;;;;;;;5022299;28;20056;-68
2021/03/13 03:20:00;;;;;;;75.50;9.98;;;;;;;;;;5029071;28;20461;-68
2021/03/13 03:22:31;;;;;;;48.70;9.45;;;;;;;;;;5029092;28;20053;-68
2021/03/13 03:25:05;;;;;;;52.65;10.95;;;;;;;;;;5028796;28;20095;-68
2021/03/13 03:27:32;;;;;;;51.28;10.45;;;;;;;;;;5041771;28;20557;-68
2021/03/13 03:29:59;;;;;;;68.40;10.95;;;;;;;;;;5025510;28;20045;-68
2021/03/13 03:32:37;;;;;;;56.30;10.15;;;;;;;;;;5022327;28;20042;-68
2021/03/13 03:35:06;;;;;;;59.08;11.10;;;;;;;;;;5039610;28;20135;-68
2021/03/13 03:37:33;;;;;;;51.60;10.90;;;;;;;;;;5039870;28;20059;-68
2021/03/13 03:40:00;;;;;;;57.20;10.63;;;;;;;;;;5026293;28;20072;-68
2021/03/13 03:42:28;;;;;;;48.45;9.32;;;;;;;;;;5026210;28;20819;-69
2021/03/13 03:44:56;;;;;;;44.75;7.68;;;;;;;;;;5027486;28;20056;-68
2021/03/13 03:47:22;;;;;;;;;;;;;;;;;;5025683;28;20051;-68
2021/03/13 03:49:54;;;;;;;40.97;9.50;;;;;;;;;;5035986;28;19921;-68
2021/03/13 03:52:44;;;;;;;62.60;11.27;;;;;;;;;;5024034;28;20058;-68
2021/03/13 03:55:11;;;;;;;69.85;11.25;;;;;;;;;;5020420;28;20064;-68
2021/03/13 03:57:39;;;;;;;43.95;9.73;;;;;;;;;;5023141;28;20598;-68
2021/03/13 04:00:07;;;;;;;61.53;11.20;;;;;;;;;;5020769;28;20042;-68
2021/03/13 04:02:53;;;;;;;47.13;9.57;;;;;;;;;;5027620;28;20037;-68
2021/03/13 04:05:20;;;;;;;51.75;10.73;;;;;;;;;;5024481;28;20660;-69
2021/03/13 04:07:46;;;;;;;52.42;10.68;;;;;;;;;;5027330;28;20111;-68
2021/03/13 04:10:14;;;;;;;46.93;9.63;;;;;;;;;;5027875;28;20048;-68
2021/03/13 04:12:41;;;;;;;53.00;10.32;;;;;;;;;;5021114;28;20061;-68
2021/03/13 04:15:08;;;;;;;74.50;12.45;;;;;;;;;;5026630;28;20051;-68
2021/03/13 04:17:36;;;;;;;50.67;12.15;;;;;;;;;;5024753;28;20440;-68
2021/03/13 04:20:03;;;;;;;48.13;9.60;;;;;;;;;;5024466;28;20049;-68
2021/03/13 04:22:30;;;;;;;;;;;;;;;;;;5029352;28;20060;-68
2021/03/13 04:24:57;;;;;;;64.25;12.35;;;;;;;;;;5029708;28;19921;-68
2021/03/13 04:27:23;;;;;;;53.53;11.30;;;;;;;;;;5025604;28;20038;-68
2021/03/13 04:29:49;;;;;;;49.97;11.38;;;;;;;;;;5027871;28;20390;-68
2021/03/13 04:32:16;;;;;;;54.15;11.88;;;;;;;;;;5028205;28;20053;-68
2021/03/13 04:34:43;;;;;;;68.15;12.30;;;;;;;;;;5026931;28;20049;-68
2021/03/13 04:37:10;;;;;;;60.03;11.27;;;;;;;;;;5020098;28;20041;-68
2021/03/13 04:39:38;;;;;;;68.07;12.00;;;;;;;;;;5025330;28;20112;-68
2021/03/13 04:42:03;;;;;;;;;;;;;;;;;;5025842;28;20124;-68
2021/03/13 04:44:30;;;;;;;45.63;11.25;;;;;;;;;;5026357;28;19935;-68
2021/03/13 04:46:57;;;;;;;59.73;9.50;;;;;;;;;;5032380;28;20045;-68
2021/03/13 04:49:23;;;;;;;76.45;13.10;;;;;;;;;;5027347;28;20046;-68
2021/03/13 04:51:49;;;;;;;59.33;12.38;;;;;;;;;;5030033;28;20037;-68
2021/03/13 04:54:15;;;;;;;63.03;13.07;;;;;;;;;;5032080;28;20064;-68
2021/03/13 04:56:42;;;;;;;59.33;10.95;;;;;;;;;;5031915;28;20042;-68
2021/03/13 04:59:08;;;;;;;59.10;11.23;;;;;;;;;;5028668;28;20397;-68
2021/03/13 05:01:35;;;;;;;59.65;13.02;;;;;;;;;;5031539;28;20045;-68
2021/03/13 05:04:01;;;;;;;57.22;11.35;;;;;;;;;;5032762;28;20063;-68
2021/03/13 05:06:28;;;;;;;55.72;10.75;;;;;;;;;;5029834;28;20444;-69
2021/03/13 05:08:55;;;;;;;67.53;12.27;;;;;;;;;;5027147;28;20099;-68
2021/03/13 05:11:21;;;;;;;67.53;13.10;;;;;;;;;;5026101;28;20124;-68
2021/03/13 05:13:47;;;;;;;60.95;11.98;;;;;;;;;;5026211;28;20044;-68
2021/03/13 05:16:13;;;;;;;62.13;12.15;;;;;;;;;;5026801;28;20046;-68
2021/03/13 05:18:40;;;;;;;56.00;11.55;;;;;;;;;;5029866;28;20036;-69
2021/03/13 05:21:06;;;;;;;62.15;13.13;;;;;;;;;;5021879;28;20081;-69
2021/03/13 05:23:32;;;;;;;58.22;13.13;;;;;;;;;;5023693;28;20037;-68
2021/03/13 05:25:58;;;;;;;45.63;12.70;;;;;;;;;;5032454;28;20045;-68
2021/03/13 05:28:24;;;;;;;56.75;12.55;;;;;;;;;;5028224;28;20041;-68
2021/03/13 05:30:50;;;;;;;59.25;11.98;;;;;;;;;;5028404;28;20060;-68
2021/03/13 05:33:17;;;;;;;58.30;13.00;;;;;;;;;;5028179;28;20050;-69
2021/03/13 05:35:44;;;;;;;72.93;13.52;;;;;;;;;;5027845;28;20101;-68
2021/03/13 05:38:10;;;;;;;71.53;13.55;;;;;;;;;;5020564;28;20037;-68
2021/03/13 05:40:37;;;;;;;48.08;11.73;;;;;;;;;;5032289;28;20099;-69
2021/03/13 05:43:04;;;;;;;55.22;13.02;;;;;;;;;;5027899;28;20091;-69
2021/03/13 05:45:31;;;;;;;59.15;13.68;;;;;;;;;;5027738;28;20400;-69
2021/03/13 05:47:59;;;;;;;49.03;12.85;;;;;;;;;;5028170;28;20049;-69
2021/03/13 05:50:26;;;;;;;65.68;12.98;;;;;;;;;;5029166;28;20045;-69
2021/03/13 05:52:57;;;;;;;60.10;13.10;;;;;;;;;;5025083;28;20053;-69
2021/03/13 05:55:23;;;;;;;55.00;12.85;;;;;;;;;;5027922;28;20046;-68
2021/03/13 05:57:51;;;;;;;58.25;12.02;;;;;;;;;;5022897;28;20132;-68
2021/03/13 06:00:20;;;;;;;52.58;13.48;;;;;;;;;;5030983;28;20489;-69
2021/03/13 06:02:47;;;;;;;52.08;12.20;;;;;;;;;;5028376;28;20054;-69
2021/03/13 06:05:14;;;;;;;39.75;9.13;;;;;;;;;;5025757;28;20041;-69
2021/03/13 06:07:44;;;;;;;48.22;12.35;;;;;;;;;;5030738;28;20037;-68
2021/03/13 06:10:16;;;;;;;52.70;13.13;;;;;;;;;;5029890;28;20120;-69
2021/03/13 06:12:42;;;;;;;51.63;11.98;;;;;;;;;;5033941;28;20037;-68
2021/03/13 06:15:09;;;;;;;53.63;12.07;;;;;;;;;;5023025;28;20048;-69
2021/03/13 06:17:54;;;;;;;53.33;12.27;;;;;;;;;;5027966;28;20054;-69
2021/03/13 06:20:34;;;;;;;47.33;12.07;;;;;;;;;;5022444;28;20125;-69
2021/03/13 06:23:02;;;;;;;61.72;12.02;;;;;;;;;;5029184;28;20073;-68
2021/03/13 06:25:29;;;;;;;56.45;12.75;;;;;;;;;;5030793;28;20041;-68
2021/03/13 06:28:07;;;;;;;48.35;12.82;;;;;;;;;;5029711;28;20521;-68
2021/03/13 06:30:34;;;;;;;50.15;12.13;;;;;;;;;;5026911;28;20054;-68
2021/03/13 06:33:17;;;;;;;60.65;13.30;;;;;;;;;;5029792;28;20057;-68
2021/03/13 06:35:44;;;;;;;42.92;12.05;;;;;;;;;;5030396;28;20547;-69
2021/03/13 06:38:15;;;;;;;55.93;11.70;;;;;;;;;;5028327;28;20041;-68
2021/03/13 06:40:42;;;;;;;46.85;12.00;;;;;;;;;;5029957;28;20300;-68
2021/03/13 06:43:19;;;;;;;55.90;13.27;;;;;;;;;;5026663;28;20046;-68
2021/03/13 06:45:59;;;;;;;46.80;12.65;;;;;;;;;;5027103;28;20045;-69
2021/03/13 06:48:34;;;;;;;43.60;11.60;;;;;;;;;;5028563;28;20037;-68
2021/03/13 06:51:19;;;;;;;66.13;14.10;;;;;;;;;;5027157;28;20379;-68
2021/03/13 06:53:58;;;;;;;49.38;12.65;;;;;;;;;;5027616;28;20041;-69
2021/03/13 06:56:25;;;;;;;44.60;12.07;;;;;;;;;;5017364;28;20048;-68
2021/03/13 06:58:51;;;;;;;56.53;10.80;;;;;;;;;;5025835;28;20038;-68
2021/03/13 07:01:24;;;;;;;47.42;10.75;;;;;;;;;;5027199;28;20046;-68
2021/03/13 07:03:51;;;;;;;45.75;11.35;;;;;;;;;;5029581;28;20124;-68
2021/03/13 07:06:18;;;;;;;42.63;11.70;;;;;;;;;;5028565;28;20204;-68
2021/03/13 07:08:45;;;;;;;44.30;11.70;;;;;;;;;;5023964;28;20181;-68
2021/03/13 07:11:11;;;;;;;48.15;11.23;;;;;;;;;;5023721;28;20136;-69
2021/03/13 07:13:38;;;;;;;41.08;10.88;;;;;;;;;;5020279;28;20046;-69
2021/03/13 07:16:22;;;;;;;41.30;11.75;;;;;;;;;;5026906;28;20128;-69
2021/03/13 07:18:49;;;;;;;51.05;12.98;;;;;;;;;;5029766;28;20047;-70
2021/03/13 07:21:16;;;;;;;34.40;9.43;;;;;;;;;;5026216;28;20072;-69
2021/03/13 07:23:43;;;;;;;43.95;11.60;;;;;;;;;;5023816;28;20046;-69
2021/03/13 07:26:10;;;;;;;46.70;13.52;;;;;;;;;;5022261;28;20107;-68
2021/03/13 07:28:39;;;;;;;43.33;12.25;;;;;;;;;;5030184;28;20489;-69
2021/03/13 07:31:08;;;;;;;41.70;12.52;;;;;;;;;;5027691;28;20065;-69
2021/03/13 07:33:35;;;;;;;50.22;12.90;;;;;;;;;;5025028;28;20046;-69
2021/03/13 07:36:02;;;;;;;44.03;11.75;;;;;;;;;;5022839;28;20045;-69
2021/03/13 07:38:32;;;;;;;37.55;11.32;;;;;;;;;;5019490;28;20517;-69
2021/03/13 07:40:58;;;;;;;34.03;10.27;;;;;;;;;;5019850;28;20519;-69
2021/03/13 07:43:25;;;;;;;47.42;11.48;;;;;;;;;;5022917;28;20448;-69
2021/03/13 07:45:52;;;;;;;37.17;10.30;;;;;;;;;;5023435;28;20050;-69
2021/03/13 07:48:18;;;;;;;36.75;10.05;;;;;;;;;;5026437;28;20037;-69
2021/03/13 07:50:48;;;;;;;40.35;10.60;;;;;;;;;;5027995;28;20060;-68
2021/03/13 07:53:15;;;;;;;31.35;9.50;;;;;;;;;;5022521;28;20485;-68
2021/03/13 07:55:51;;;;;;;41.42;10.73;;;;;;;;;;5019458;28;20034;-69
2021/03/13 07:58:22;;;;;;;37.78;9.65;;;;;;;;;;5019713;28;20060;-68
2021/03/13 08:00:48;;;;;;;31.23;9.18;;;;;;;;;;5018224;28;20067;-68
2021/03/13 08:03:27;;;;;;;34.15;8.73;;;;;;;;;;5022298;28;20045;-69
2021/03/13 08:05:57;;;;;;;35.67;9.05;;;;;;;;;;5024331;28;20049;-68
2021/03/13 08:08:59;;;;;;;29.95;8.48;;;;;;;;;;5020831;28;20073;-68
2021/03/13 08:11:37;;;;;;;40.63;9.20;;;;;;;;;;5011174;28;20493;-68
2021/03/13 08:14:03;;;;;;;28.65;7.95;;;;;;;;;;5027195;28;20470;-69
2021/03/13 08:27:41;;;;;;;26.35;7.53;;;;;;;;;;5115007;27;20373;-60
2021/03/13 08:30:29;;;;;;;25.25;7.03;;;;;;;;;;5103109;28;20105;-61
2021/03/13 08:33:07;;;;;;;33.47;7.20;;;;;;;;;;5102958;28;20047;-61
2021/03/13 08:35:38;;;;;;;26.08;7.13;;;;;;;;;;5104006;28;20073;-61
2021/03/13 08:38:05;;;;;;;29.70;7.00;;;;;;;;;;5108342;28;20573;-61
2021/03/13 08:40:32;;;;;;;22.23;6.13;;;;;;;;;;5107576;28;20101;-61
2021/03/13 08:42:58;;;;;;;26.92;6.47;;;;;;;;;;5107108;28;20547;-61
2021/03/13 08:45:32;;;;;;;32.70;6.55;;;;;;;;;;5106489;28;20036;-61
2021/03/13 08:47:58;;;;;;;27.08;6.50;;;;;;;;;;5110891;28;20043;-61
2021/03/13 08:50:43;;;;;;;19.65;6.38;;;;;;;;;;5110859;28;20044;-61
2021/03/13 08:53:28;;;;;;;24.60;6.28;;;;;;;;;;5104097;28;20047;-61
2021/03/13 08:55:54;;;;;;;20.50;6.10;;;;;;;;;;5103287;28;20040;-61
2021/03/13 08:58:39;;;;;;;26.15;6.18;;;;;;;;;;5104448;28;20039;-61
2021/03/13 09:01:15;;;;;;;38.83;6.85;;;;;;;;;;5105546;28;20055;-61
2021/03/13 09:03:48;;;;;;;37.30;6.57;;;;;;;;;;5106073;28;20048;-61
2021/03/13 09:06:16;;;;;;;23.35;5.95;;;;;;;;;;5105659;28;20040;-62
2021/03/13 09:08:42;;;;;;;27.35;5.78;;;;;;;;;;5103808;28;20036;-61
2021/03/13 09:11:08;;;;;;;26.40;5.63;;;;;;;;;;5102860;28;20502;-61
2021/03/13 09:13:35;;;;;;;32.25;5.97;;;;;;;;;;5107256;28;20106;-61
2021/03/13 09:16:14;;;;;;;24.38;5.43;;;;;;;;;;5106306;28;20112;-61
2021/03/13 09:18:51;;;;;;;28.40;5.05;;;;;;;;;;5105037;28;20375;-62
2021/03/13 09:21:35;;;;;;;25.95;5.65;;;;;;;;;;5102085;28;20039;-61
2021/03/13 09:24:02;;;;;;;25.73;5.63;;;;;;;;;;5102486;28;20067;-61
2021/03/13 09:26:28;;;;;;;16.42;5.45;;;;;;;;;;5101839;28;20147;-62
2021/03/13 09:28:54;;;;;;;22.40;5.53;;;;;;;;;;5101500;28;20032;-62
2021/03/13 09:31:21;;;;;;;23.85;5.38;;;;;;;;;;5103978;28;20115;-62
2021/03/13 09:33:47;;;;;;;28.85;6.57;;;;;;;;;;5103344;28;20054;-62
2021/03/13 09:36:13;;;;;;;20.88;5.38;;;;;;;;;;5104696;28;20441;-62
2021/03/13 09:38:52;;;;;;;19.58;4.25;;;;;;;;;;5090469;28;20487;-62
2021/03/13 09:41:18;;;;;;;24.95;4.93;;;;;;;;;;5092189;28;20445;-61
2021/03/13 09:43:45;;;;;;;25.73;5.60;;;;;;;;;;5100385;28;20589;-61
2021/03/13 09:46:17;;;;;;;13.80;4.07;;;;;;;;;;5088183;28;20047;-61
2021/03/13 09:48:44;;;;;;;15.32;4.18;;;;;;;;;;5087089;28;20518;-62
2021/03/13 09:51:10;;;;;;;14.65;3.65;;;;;;;;;;5084309;28;20547;-61
2021/03/13 09:53:37;;;;;;;16.17;4.38;;;;;;;;;;5082777;28;20063;-61
2021/03/13 09:56:03;;;;;;;15.45;4.75;;;;;;;;;;5093121;28;20071;-61
2021/03/13 09:58:29;;;;;;;12.68;3.78;;;;;;;;;;5091078;28;20040;-62
2021/03/13 10:00:56;;;;;;;15.52;3.88;;;;;;;;;;5088311;28;20092;-61
2021/03/13 10:03:22;;;;;;;18.67;4.07;;;;;;;;;;5091196;28;20488;-61
2021/03/13 10:05:52;;;;;;;23.35;4.15;;;;;;;;;;5085444;28;20041;-61
2021/03/13 10:08:18;;;;;;;19.90;3.65;;;;;;;;;;5067506;28;20036;-61
2021/03/13 10:10:45;;;;;;;20.20;4.18;;;;;;;;;;5086288;28;20039;-61
2021/03/13 10:13:13;;;;;;;9.48;3.33;;;;;;;;;;5087052;28;20052;-61
2021/03/13 10:15:40;;;;;;;16.50;3.58;;;;;;;;;;5088474;28;20070;-61
2021/03/13 10:18:18;;;;;;;17.40;3.30;;;;;;;;;;5091596;28;20135;-61
2021/03/13 10:20:50;;;;;;;14.80;2.90;;;;;;;;;;5090202;28;20036;-61
2021/03/13 10:23:21;;;;;;;21.13;3.72;;;;;;;;;;5091918;28;20040;-61
2021/03/13 10:26:07;;;;;;;19.25;3.65;;;;;;;;;;5092816;28;20048;-62
2021/03/13 10:28:34;;;;;;;13.25;3.33;;;;;;;;;;5086009;28;20043;-62
2021/03/13 10:31:05;;;;;;;26.05;4.15;;;;;;;;;;5088225;28;20041;-61
2021/03/13 10:33:32;;;;;;;14.75;2.85;;;;;;;;;;5085670;28;20525;-62
2021/03/13 10:35:59;;;;;;;;;;;;;;;;;;5092068;28;20491;-62
2021/03/13 10:38:25;;;;;;;38.55;11.57;;;;;;;;;;5087490;28;19927;-61
2021/03/13 10:40:51;;;;;;;23.52;6.85;;;;;;;;;;5084529;28;20327;-62
2021/03/13 10:43:18;;;;;;;25.47;6.67;;;;;;;;;;5085873;28;20487;-62
2021/03/13 10:45:45;;;;;;;25.92;6.13;;;;;;;;;;5093190;28;20399;-61
2021/03/13 10:48:12;;;;;;;18.23;5.15;;;;;;;;;;5089159;28;20085;-62
2021/03/13 10:50:39;;;;;;;45.08;10.88;;;;;;;;;;5086267;28;20048;-62
2021/03/13 10:53:24;;;;;;;40.25;9.73;;;;;;;;;;5092030;28;20048;-61
2021/03/13 10:55:54;;;;;;;89.38;20.38;;;;;;;;;;5091478;28;20081;-62
2021/03/13 10:58:23;;;;;;;152.00;18.52;;;;;;;;;;5087222;28;20039;-62
2021/03/13 11:00:50;;;;;;;26.13;6.72;;;;;;;;;;5087351;28;20052;-61
2021/03/13 11:03:16;;;;;;;83.72;27.67;;;;;;;;;;5089354;28;20040;-61
2021/03/13 11:05:42;;;;;;;43.42;12.05;;;;;;;;;;5082840;28;20044;-61
2021/03/13 11:08:12;;;;;;;53.05;15.43;;;;;;;;;;5090156;28;20519;-61
2021/03/13 11:10:39;;;;;;;29.70;9.98;;;;;;;;;;5087273;28;20047;-61
2021/03/13 11:13:05;;;;;;;28.43;8.27;;;;;;;;;;5088356;28;20570;-61
2021/03/13 11:15:32;;;;;;;35.97;8.77;;;;;;;;;;5085272;28;20039;-61
2021/03/13 11:17:58;;;;;;;33.78;8.00;;;;;;;;;;5092843;28;20368;-61
2021/03/13 11:20:24;;;;;;;30.42;5.95;;;;;;;;;;5090572;28;20043;-61
2021/03/13 11:22:50;;;;;;;32.83;8.23;;;;;;;;;;5082967;28;20110;-61
2021/03/13 11:25:17;;;;;;;16.50;4.20;;;;;;;;;;5092169;28;20051;-62
2021/03/13 11:27:43;;;;;;;21.20;4.82;;;;;;;;;;5090307;28;20308;-61
2021/03/13 11:30:12;;;;;;;27.98;7.22;;;;;;;;;;5087066;28;20043;-61
2021/03/13 11:32:39;;;;;;;14.73;4.23;;;;;;;;;;5089897;28;20078;-62
2021/03/13 11:35:06;;;;;;;31.52;7.35;;;;;;;;;;5092033;28;20101;-61
2021/03/13 11:37:32;;;;;;;36.47;8.82;;;;;;;;;;5085644;28;20048;-61
2021/03/13 11:39:58;;;;;;;42.00;9.27;;;;;;;;;;5086961;28;20039;-61
2021/03/13 11:42:28;;;;;;;26.45;6.22;;;;;;;;;;5084810;28;20499;-61
2021/03/13 11:44:56;;;;;;;21.55;5.68;;;;;;;;;;5084275;28;20140;-61
2021/03/13 11:47:22;;;;;;;23.27;5.35;;;;;;;;;;5082732;28;20540;-61
2021/03/13 11:49:49;;;;;;;26.17;5.40;;;;;;;;;;5088953;28;20419;-61
2021/03/13 11:52:18;;;;;;;22.85;6.60;;;;;;;;;;5084479;28;20290;-61
2021/03/13 11:54:48;;;;;;;28.75;4.75;;;;;;;;;;5088582;28;20090;-61
2021/03/13 11:57:15;;;;;;;23.00;4.63;;;;;;;;;;5085788;28;20040;-61
2021/03/13 11:59:43;;;;;;;17.48;4.07;;;;;;;;;;5085323;28;20097;-61
2021/03/13 12:02:10;;;;;;;32.83;6.72;;;;;;;;;;5091067;28;20048;-61
2021/03/13 12:04:37;;;;;;;11.32;2.97;;;;;;;;;;5090398;28;20044;-61
2021/03/13 12:07:03;;;;;;;26.42;6.63;;;;;;;;;;5088549;28;20044;-61
2021/03/13 12:09:29;;;;;;;19.00;5.93;;;;;;;;;;5085836;28;20054;-61
2021/03/13 12:11:55;;;;;;;23.10;5.38;;;;;;;;;;5089264;28;20419;-61
2021/03/13 12:14:21;;;;;;;24.38;5.57;;;;;;;;;;5086248;28;20126;-61
2021/03/13 12:16:47;;;;;;;16.88;3.95;;;;;;;;;;5089267;28;20039;-61
2021/03/13 12:19:13;;;;;;;19.10;5.10;;;;;;;;;;5088778;28;20505;-61
2021/03/13 12:21:40;;;;;;;21.25;4.68;;;;;;;;;;5089683;28;20060;-61
2021/03/13 12:24:07;;;;;;;18.90;4.28;;;;;;;;;;5089521;28;20119;-61
2021/03/13 12:26:33;;;;;;;23.13;4.28;;;;;;;;;;5089883;28;20059;-61
2021/03/13 12:28:59;;;;;;;22.80;4.70;;;;;;;;;;5087304;28;20546;-61
2021/03/13 12:31:25;;;;;;;14.15;3.13;;;;;;;;;;5086720;28;20043;-61
2021/03/13 12:33:51;;;;;;;24.30;5.57;;;;;;;;;;5089498;28;20116;-61
2021/03/13 12:36:18;;;;;;;26.65;6.05;;;;;;;;;;5082354;28;20028;-61
2021/03/13 12:38:48;;;;;;;17.75;4.00;;;;;;;;;;5083643;28;20056;-61
2021/03/13 12:41:14;;;;;;;15.40;5.10;;;;;;;;;;5080662;28;20062;-61
2021/03/13 12:43:40;;;;;;;10.23;3.75;;;;;;;;;;5087387;28;20051;-61
2021/03/13 12:46:06;;;;;;;16.95;3.63;;;;;;;;;;5081823;28;20036;-61
2021/03/13 12:48:32;;;;;;;15.48;3.88;;;;;;;;;;5084890;28;20048;-61
2021/03/13 12:50:58;;;;;;;11.05;3.22;;;;;;;;;;5086570;28;20039;-62
2021/03/13 12:53:24;;;;;;;8.05;2.60;;;;;;;;;;5085956;28;20101;-61
2021/03/13 12:55:50;;;;;;;10.52;2.22;;;;;;;;;;5086929;28;20055;-61
2021/03/13 12:58:17;;;;;;;16.02;4.45;;;;;;;;;;5085743;28;20097;-61
2021/03/13 13:00:45;;;;;;;24.45;5.30;;;;;;;;;;5081322;28;20517;-61
2021/03/13 13:03:11;;;;;;;19.05;4.25;;;;;;;;;;5084799;28;20072;-61
2021/03/13 13:05:38;;;;;;;37.97;7.18;;;;;;;;;;5084824;28;20115;-61
2021/03/13 13:08:04;;;;;;;22.88;4.22;;;;;;;;;;5087420;28;20056;-61
2021/03/13 13:10:33;;;;;;;23.08;4.68;;;;;;;;;;5091810;28;20056;-62
2021/03/13 13:12:59;;;;;;;17.45;4.05;;;;;;;;;;5088904;28;20040;-61
2021/03/13 13:15:25;;;;;;;16.58;3.45;;;;;;;;;;5089017;28;20065;-61
2021/03/13 13:17:51;;;;;;;17.08;3.08;;;;;;;;;;5094002;28;20067;-61
2021/03/13 13:20:18;;;;;;;8.77;2.50;;;;;;;;;;5092239;28;20130;-61
2021/03/13 13:22:45;;;;;;;12.52;3.47;;;;;;;;;;5090315;28;20051;-62
2021/03/13 13:25:12;;;;;;;12.38;2.97;;;;;;;;;;5088994;28;20131;-62
2021/03/13 13:27:40;;;;;;;11.63;2.85;;;;;;;;;;5089673;28;20044;-62
2021/03/13 13:30:07;;;;;;;21.10;4.90;;;;;;;;;;5087640;28;20036;-61
2021/03/13 13:32:33;;;;;;;15.45;3.13;;;;;;;;;;5091723;28;20564;-61
2021/03/13 13:35:00;;;;;;;9.65;2.33;;;;;;;;;;5089877;28;20491;-62
2021/03/13 13:37:26;;;;;;;7.68;2.28;;;;;;;;;;5088339;28;20057;-61
2021/03/13 13:40:05;;;;;;;10.63;2.10;;;;;;;;;;5087671;28;20068;-61
2021/03/13 13:42:32;;;;;;;8.43;3.28;;;;;;;;;;5083167;28;20509;-61
2021/03/13 13:44:58;;;;;;;8.30;2.40;;;;;;;;;;5089914;28;20044;-61
2021/03/13 13:47:25;;;;;;;9.35;2.33;;;;;;;;;;5088796;28;20380;-62
2021/03/13 13:49:51;;;;;;;11.75;2.15;;;;;;;;;;5090228;28;20224;-62
2021/03/13 13:52:17;;;;;;;12.07;3.17;;;;;;;;;;5087051;28;20051;-61
2021/03/13 13:54:44;;;;;;;14.13;2.97;;;;;;;;;;5081996;28;20032;-62
2021/03/13 13:57:10;;;;;;;15.98;2.60;;;;;;;;;;5088796;28;20402;-62
2021/03/13 13:59:36;;;;;;;11.05;2.50;;;;;;;;;;5090282;28;20036;-62
2021/03/13 14:02:06;;;;;;;12.32;2.63;;;;;;;;;;5091193;28;20068;-61
2021/03/13 14:04:32;;;;;;;14.52;2.45;;;;;;;;;;5092561;28;20089;-61
2021/03/13 14:06:58;;;;;;;9.00;2.30;;;;;;;;;;5088545;28;20085;-62
2021/03/13 14:09:25;;;;;;;13.32;3.10;;;;;;;;;;5087603;28;20043;-61
2021/03/13 14:11:50;;;;;;;14.18;2.58;;;;;;;;;;5090216;28;20043;-62
2021/03/13 14:14:17;;;;;;;59.40;24.73;;;;;;;;;;5087039;28;20111;-62
2021/03/13 14:16:43;;;;;;;12.90;4.57;;;;;;;;;;5085601;28;20040;-62
2021/03/13 14:19:09;;;;;;;17.42;4.85;;;;;;;;;;5086241;28;20043;-62
2021/03/13 14:21:35;;;;;;;10.57;2.75;;;;;;;;;;5085964;28;20048;-61
2021/03/13 14:24:01;;;;;;;12.68;4.10;;;;;;;;;;5085847;28;20068;-62
2021/03/13 14:26:27;;;;;;;21.83;5.85;;;;;;;;;;5087961;28;20060;-62
2021/03/13 14:28:56;;;;;;;13.70;2.90;;;;;;;;;;5091872;28;20123;-62
2021/03/13 14:31:25;;;;;;;11.73;2.50;;;;;;;;;;5086565;28;20044;-61
2021/03/13 14:34:07;;;;;;;14.32;2.70;;;;;;;;;;5091299;28;20051;-61
2021/03/13 14:36:33;;;;;;;12.77;2.80;;;;;;;;;;5090946;28;20523;-62
2021/03/13 14:38:59;;;;;;;13.80;2.45;;;;;;;;;;5089581;28;20102;-62
2021/03/13 14:41:25;;;;;;;13.75;2.55;;;;;;;;;;5087119;28;20044;-62
2021/03/13 14:43:51;;;;;;;9.95;2.47;;;;;;;;;;5088598;28;20044;-62
2021/03/13 14:46:19;;;;;;;12.77;2.67;;;;;;;;;;5089567;28;20045;-62
2021/03/13 14:48:47;;;;;;;14.85;2.63;;;;;;;;;;5090724;28;20060;-62
2021/03/13 14:51:13;;;;;;;18.15;3.28;;;;;;;;;;5086904;28;20035;-62